createdAt,value
2023-06-10T00:02:12.533Z,10.73
2023-06-10T00:04:38.967Z,11.03
2023-06-10T00:07:05.350Z,10.46
2023-06-10T00:09:31.704Z,10.46
2023-06-10T00:11:58.105Z,10.44
2023-06-10T00:14:24.441Z,10.66
2023-06-10T00:16:50.866Z,10.94
2023-06-10T00:19:17.258Z,11.18
2023-06-10T00:21:43.612Z,10.83
2023-06-10T00:24:10.038Z,10.39
2023-06-10T00:26:36.398Z,10.12
2023-06-10T00:29:02.742Z,10.32
2023-06-10T00:31:29.107Z,9.57
2023-06-10T00:33:55.490Z,10.00
2023-06-10T00:36:21.843Z,9.80
2023-06-10T00:38:48.196Z,10.23
2023-06-10T00:41:14.554Z,9.52
2023-06-10T00:43:40.898Z,10.24
2023-06-10T00:46:07.283Z,10.34
2023-06-10T00:48:33.716Z,10.04
2023-06-10T00:51:00.061Z,10.16
2023-06-10T00:53:26.410Z,10.56
2023-06-10T00:55:52.799Z,10.41
2023-06-10T00:58:19.151Z,10.80
2023-06-10T01:00:45.506Z,10.72
2023-06-10T01:03:12.008Z,10.32
2023-06-10T01:05:38.397Z,10.72
2023-06-10T01:08:04.752Z,10.28
2023-06-10T01:10:31.134Z,10.80
2023-06-10T01:12:57.489Z,11.35
2023-06-10T01:15:23.849Z,10.60
2023-06-10T01:17:50.467Z,10.21
2023-06-10T01:20:16.824Z,9.61
2023-06-10T01:22:43.171Z,9.38
2023-06-10T01:25:09.849Z,9.47
2023-06-10T01:27:36.368Z,9.43
2023-06-10T01:30:02.712Z,9.32
2023-06-10T01:32:29.107Z,9.40
2023-06-10T01:34:55.501Z,9.23
2023-06-10T01:37:21.834Z,9.14
2023-06-10T01:39:48.449Z,10.04
2023-06-10T01:42:14.793Z,9.83
2023-06-10T01:44:41.144Z,9.53
2023-06-10T01:47:07.553Z,9.82
2023-06-10T01:49:33.909Z,9.77
2023-06-10T01:52:00.270Z,9.63
2023-06-10T01:54:26.647Z,9.72
2023-06-10T01:56:52.991Z,10.03
2023-06-10T01:59:19.334Z,9.66
2023-06-10T02:01:45.946Z,9.79
2023-06-10T02:04:12.282Z,9.86
2023-06-10T02:06:38.626Z,10.03
2023-06-10T02:09:04.985Z,9.96
2023-06-10T02:11:31.329Z,10.39
2023-06-10T02:13:57.654Z,9.66
2023-06-10T02:16:24.069Z,9.46
2023-06-10T02:18:50.471Z,9.64
2023-06-10T02:21:16.827Z,9.66
2023-06-10T02:23:43.279Z,10.11
2023-06-10T02:26:09.691Z,9.80
2023-06-10T02:28:36.135Z,9.77
2023-06-10T02:31:02.510Z,9.22
2023-06-10T02:33:28.877Z,9.43
2023-06-10T02:35:55.237Z,9.52
2023-06-10T02:38:21.615Z,9.01
2023-06-10T02:40:47.964Z,9.42
2023-06-10T02:43:14.311Z,9.25
2023-06-10T02:45:40.677Z,9.24
2023-06-10T02:48:07.050Z,9.09
2023-06-10T02:50:33.397Z,8.75
2023-06-10T02:52:59.771Z,9.12
2023-06-10T02:55:26.101Z,9.30
2023-06-10T02:57:52.441Z,9.22
2023-06-10T03:00:18.887Z,10.12
2023-06-10T03:02:45.397Z,9.94
2023-06-10T03:05:12.353Z,10.29
2023-06-10T03:07:38.962Z,10.44
2023-06-10T03:10:05.336Z,10.34
2023-06-10T03:12:31.681Z,10.68
2023-06-10T03:14:58.065Z,10.33
2023-06-10T03:17:24.523Z,10.51
2023-06-10T03:19:51.002Z,10.02
2023-06-10T03:22:17.394Z,10.22
2023-06-10T03:24:43.741Z,9.96
2023-06-10T03:27:10.077Z,10.26
2023-06-10T03:29:36.486Z,10.57
2023-06-10T03:32:02.831Z,10.48
2023-06-10T03:34:29.176Z,9.61
2023-06-10T03:36:55.531Z,9.50
2023-06-10T03:39:21.866Z,9.64
2023-06-10T03:41:48.211Z,9.24
2023-06-10T03:44:14.564Z,10.20
2023-06-10T03:46:40.889Z,9.75
2023-06-10T03:49:07.257Z,9.64
2023-06-10T03:51:33.627Z,9.92
2023-06-10T03:53:59.983Z,10.05
2023-06-10T03:56:26.334Z,10.18
2023-06-10T03:58:52.798Z,10.03
2023-06-10T04:01:20.255Z,10.09
2023-06-10T04:03:46.590Z,9.60
2023-06-10T04:06:13.010Z,9.95
2023-06-10T04:08:39.479Z,10.20
2023-06-10T04:11:05.833Z,10.21
2023-06-10T04:13:32.204Z,10.09
2023-06-10T04:15:58.571Z,10.29
2023-06-10T04:18:24.956Z,10.23
2023-06-10T04:20:51.336Z,10.48
2023-06-10T04:23:17.686Z,10.49
2023-06-10T04:25:44.048Z,10.18
2023-06-10T04:28:10.431Z,10.26
2023-06-10T04:30:36.795Z,10.60
2023-06-10T04:33:03.183Z,10.54
2023-06-10T04:35:29.651Z,10.89
2023-06-10T04:37:56.000Z,10.06
2023-06-10T04:40:22.345Z,10.10
2023-06-10T04:42:48.703Z,9.54
2023-06-10T04:45:15.051Z,9.62
2023-06-10T04:47:41.644Z,9.59
2023-06-10T04:50:08.058Z,9.39
2023-06-10T04:52:34.399Z,9.07
2023-06-10T04:55:00.743Z,9.13
2023-06-10T04:57:27.237Z,9.42
2023-06-10T04:59:53.629Z,9.53
2023-06-10T05:02:20.071Z,8.95
2023-06-10T05:04:46.500Z,8.98
2023-06-10T05:07:12.840Z,9.30
2023-06-10T05:09:39.179Z,9.42
2023-06-10T05:12:05.539Z,9.14
2023-06-10T05:14:31.883Z,9.41
2023-06-10T05:16:58.232Z,9.43
2023-06-10T05:19:24.590Z,9.40
2023-06-10T05:21:50.950Z,9.64
2023-06-10T05:24:17.465Z,9.99
2023-06-10T05:26:44.042Z,10.08
2023-06-10T05:29:10.400Z,10.20
2023-06-10T05:31:36.904Z,10.29
2023-06-10T05:34:03.328Z,10.74
2023-06-10T05:36:29.679Z,11.43
2023-06-10T05:38:56.025Z,11.35
2023-06-10T05:41:22.435Z,11.27
2023-06-10T05:43:48.826Z,12.11
2023-06-10T05:46:15.272Z,11.96
2023-06-10T05:48:41.687Z,12.36
2023-06-10T05:51:08.044Z,12.38
2023-06-10T05:53:34.394Z,12.76
2023-06-10T05:56:00.808Z,12.01
2023-06-10T05:58:27.150Z,12.85
2023-06-10T06:00:53.515Z,12.72
2023-06-10T06:03:20.046Z,12.09
2023-06-10T06:05:46.524Z,11.89
2023-06-10T06:08:12.872Z,12.60
2023-06-10T06:10:39.268Z,12.24
2023-06-10T06:13:05.603Z,12.74
2023-06-10T06:15:31.942Z,13.24
2023-06-10T06:17:58.318Z,13.03
2023-06-10T06:20:24.714Z,12.89
2023-06-10T06:22:51.123Z,13.08
2023-06-10T06:25:17.561Z,13.15
2023-06-10T06:27:43.960Z,13.56
2023-06-10T06:30:10.326Z,13.20
2023-06-10T06:32:36.778Z,12.62
2023-06-10T06:35:03.132Z,12.52
2023-06-10T06:37:29.504Z,11.90
2023-06-10T06:39:55.924Z,12.35
2023-06-10T06:42:22.286Z,11.62
2023-06-10T06:44:48.631Z,11.25
2023-06-10T06:47:15.171Z,11.24
2023-06-10T06:49:41.551Z,11.59
2023-06-10T06:52:07.908Z,11.55
2023-06-10T06:54:34.277Z,11.50
2023-06-10T06:57:00.645Z,11.41
2023-06-10T06:59:26.990Z,11.39
2023-06-10T07:01:53.385Z,11.14
2023-06-10T07:04:19.799Z,10.84
2023-06-10T07:06:46.155Z,10.56
2023-06-10T07:09:12.527Z,11.09
2023-06-10T07:11:38.876Z,10.79
2023-06-10T07:14:05.238Z,10.78
2023-06-10T07:16:31.683Z,11.01
2023-06-10T07:18:58.073Z,11.12
2023-06-10T07:21:24.435Z,11.39
2023-06-10T07:23:50.812Z,11.20
2023-06-10T07:26:17.200Z,10.56
2023-06-10T07:28:43.679Z,11.04
2023-06-10T07:31:10.104Z,11.15
2023-06-10T07:33:36.446Z,11.14
2023-06-10T07:36:02.807Z,11.30
2023-06-10T07:38:29.260Z,10.89
2023-06-10T07:40:55.604Z,11.02
2023-06-10T07:43:21.993Z,10.18
2023-06-10T07:45:48.358Z,9.75
2023-06-10T07:48:14.694Z,9.78
2023-06-10T07:50:41.048Z,10.50
2023-06-10T07:53:07.470Z,10.24
2023-06-10T07:55:34.043Z,9.84
2023-06-10T07:58:00.435Z,10.63
2023-06-10T08:00:26.810Z,10.27
2023-06-10T08:02:53.298Z,10.07
2023-06-10T08:05:19.872Z,10.29
2023-06-10T08:07:46.306Z,10.67
2023-06-10T08:10:12.669Z,10.43
2023-06-10T08:12:39.042Z,10.25
2023-06-10T08:15:05.546Z,10.42
2023-06-10T08:17:32.122Z,10.69
2023-06-10T08:19:58.492Z,10.70
2023-06-10T08:22:24.874Z,10.91
2023-06-10T08:24:51.175Z,10.73
2023-06-10T08:27:17.638Z,10.40
2023-06-10T08:29:44.062Z,10.90
2023-06-10T08:32:10.431Z,10.78
2023-06-10T08:34:36.809Z,10.91
2023-06-10T08:37:03.173Z,10.63
2023-06-10T08:39:29.529Z,10.50
2023-06-10T08:41:55.870Z,10.61
2023-06-10T08:44:22.236Z,10.36
2023-06-10T08:46:48.588Z,10.13
2023-06-10T08:49:15.154Z,10.68
2023-06-10T08:51:41.580Z,10.22
2023-06-10T08:54:07.940Z,10.67
2023-06-10T08:56:34.290Z,10.51
2023-06-10T08:59:00.692Z,10.69
2023-06-10T09:01:27.077Z,10.61
2023-06-10T09:03:53.501Z,11.07
2023-06-10T09:06:19.888Z,10.80
2023-06-10T09:08:46.262Z,11.08
2023-06-10T09:11:12.615Z,10.83
2023-06-10T09:13:39.010Z,10.97
2023-06-10T09:16:05.534Z,10.91
2023-06-10T09:18:31.925Z,10.82
2023-06-10T09:20:58.307Z,9.97
2023-06-10T09:23:24.848Z,10.07
2023-06-10T09:25:51.199Z,10.08
2023-06-10T09:28:17.568Z,10.39
2023-06-10T09:30:43.921Z,9.79
2023-06-10T09:33:10.348Z,9.74
2023-06-10T09:35:36.783Z,9.49
2023-06-10T09:38:03.368Z,9.81
2023-06-10T09:40:29.767Z,9.86
2023-06-10T09:42:56.129Z,9.85
2023-06-10T09:45:22.469Z,9.63
2023-06-10T09:47:48.863Z,9.48
2023-06-10T09:50:15.462Z,9.62
2023-06-10T09:52:42.053Z,9.64
2023-06-10T09:55:08.462Z,9.04
2023-06-10T09:57:35.150Z,8.61
2023-06-10T10:00:01.590Z,8.74
2023-06-10T10:02:27.934Z,8.25
2023-06-10T10:04:54.409Z,8.80
2023-06-10T10:07:20.788Z,8.41
2023-06-10T10:09:47.149Z,8.61
2023-06-10T10:12:13.503Z,8.53
2023-06-10T10:14:39.836Z,8.00
2023-06-10T10:17:06.290Z,7.48
2023-06-10T10:19:32.780Z,7.51
2023-06-10T10:21:59.124Z,7.70
2023-06-10T10:24:25.533Z,7.60
2023-06-10T10:26:51.984Z,7.55
2023-06-10T10:29:18.358Z,7.43
2023-06-10T10:31:44.703Z,7.97
2023-06-10T10:34:11.171Z,8.01
2023-06-10T10:36:37.653Z,7.45
2023-06-10T10:39:04.002Z,6.90
2023-06-10T10:41:30.351Z,7.07
2023-06-10T10:43:56.739Z,6.72
2023-06-10T10:46:23.271Z,6.90
2023-06-10T10:48:49.671Z,7.00
2023-06-10T10:51:16.009Z,7.39
2023-06-10T10:53:42.413Z,7.56
2023-06-10T10:56:08.812Z,7.54
2023-06-10T10:58:35.169Z,8.20
2023-06-10T11:01:01.598Z,7.59
2023-06-10T11:03:28.285Z,6.49
2023-06-10T11:05:54.783Z,6.61
2023-06-10T11:08:21.164Z,6.67
2023-06-10T11:10:47.618Z,6.24
2023-06-10T11:13:13.970Z,6.49
2023-06-10T11:15:40.318Z,6.50
2023-06-10T11:18:06.768Z,6.10
2023-06-10T11:20:33.287Z,6.30
2023-06-10T11:22:59.688Z,6.67
2023-06-10T11:25:26.072Z,6.45
2023-06-10T11:27:52.442Z,6.54
2023-06-10T11:30:18.828Z,5.99
2023-06-10T11:32:45.301Z,6.05
2023-06-10T11:35:12.145Z,6.22
2023-06-10T11:37:38.696Z,6.22
2023-06-10T11:40:05.103Z,6.11
2023-06-10T11:42:31.457Z,6.41
2023-06-10T11:44:57.818Z,5.79
2023-06-10T11:47:24.217Z,6.02
2023-06-10T11:49:52.051Z,6.47
2023-06-10T11:52:18.496Z,5.87
2023-06-10T11:54:44.845Z,6.20
2023-06-10T11:57:11.211Z,5.49
2023-06-10T11:59:37.545Z,5.63
2023-06-10T12:02:03.895Z,5.72
2023-06-10T12:04:30.244Z,5.40
2023-06-10T12:06:56.568Z,5.49
2023-06-10T12:09:25.872Z,5.30
2023-06-10T12:11:53.025Z,5.64
2023-06-10T12:14:19.918Z,5.67
2023-06-10T12:16:46.300Z,5.29
2023-06-10T12:19:12.643Z,5.47
2023-06-10T12:21:39.013Z,5.45
2023-06-10T12:24:05.418Z,5.59
2023-06-10T12:26:31.855Z,5.46
2023-06-10T12:28:58.196Z,5.94
2023-06-10T12:31:24.593Z,5.81
2023-06-10T12:33:50.951Z,5.95
2023-06-10T12:36:17.312Z,5.87
2023-06-10T12:38:43.693Z,5.87
2023-06-10T12:41:10.035Z,6.30
2023-06-10T12:43:36.391Z,6.21
2023-06-10T12:46:02.794Z,6.19
2023-06-10T12:48:31.111Z,6.38
2023-06-10T12:50:57.679Z,5.89
2023-06-10T12:53:24.089Z,6.52
2023-06-10T12:55:50.458Z,6.47
2023-06-10T12:58:16.818Z,6.41
2023-06-10T13:00:43.180Z,6.58
2023-06-10T13:03:09.578Z,6.96
2023-06-10T13:05:35.947Z,6.44
2023-06-10T13:08:02.322Z,6.35
2023-06-10T13:10:28.671Z,6.68
2023-06-10T13:12:55.018Z,6.46
2023-06-10T13:15:21.378Z,6.14
2023-06-10T13:17:47.732Z,5.49
2023-06-10T13:20:14.091Z,5.08
2023-06-10T13:22:40.491Z,4.91
2023-06-10T13:25:06.839Z,4.51
2023-06-10T13:27:33.194Z,4.87
2023-06-10T13:29:59.571Z,5.04
2023-06-10T13:32:25.969Z,5.04
2023-06-10T13:34:52.360Z,5.12
2023-06-10T13:37:18.727Z,5.10
2023-06-10T13:39:45.071Z,5.29
2023-06-10T13:42:11.420Z,5.35
2023-06-10T13:44:37.814Z,5.59
2023-06-10T13:47:04.304Z,5.57
2023-06-10T13:49:30.809Z,6.00
2023-06-10T13:51:57.297Z,5.90
2023-06-10T13:54:23.646Z,5.57
2023-06-10T13:56:49.999Z,6.47
2023-06-10T13:59:16.364Z,7.02
2023-06-10T14:01:42.773Z,7.62
2023-06-10T14:04:09.247Z,7.33
2023-06-10T14:06:35.672Z,6.77
2023-06-10T14:09:02.020Z,7.13
2023-06-10T14:11:28.357Z,7.18
2023-06-10T14:13:54.719Z,7.91
2023-06-10T14:16:21.086Z,7.79
2023-06-10T14:18:47.436Z,7.01
2023-06-10T14:21:13.798Z,6.47
2023-06-10T14:23:40.160Z,5.90
2023-06-10T14:26:06.540Z,6.63
2023-06-10T14:28:32.947Z,7.31
2023-06-10T14:30:59.297Z,7.88
2023-06-10T14:33:25.691Z,8.07
2023-06-10T14:35:52.082Z,7.73
2023-06-10T14:38:18.433Z,7.44
2023-06-10T14:40:44.799Z,7.65
2023-06-10T14:43:11.157Z,7.30
2023-06-10T14:45:37.513Z,7.37
2023-06-10T14:48:03.922Z,7.24
2023-06-10T14:50:30.341Z,6.72
2023-06-10T14:52:56.700Z,6.98
2023-06-10T14:55:23.044Z,7.06
2023-06-10T14:57:49.430Z,6.81
2023-06-10T15:00:15.789Z,6.49
2023-06-10T15:02:42.199Z,6.35
2023-06-10T15:05:08.863Z,6.45
2023-06-10T15:07:35.427Z,6.63
2023-06-10T15:10:01.793Z,6.22
2023-06-10T15:12:28.207Z,6.44
2023-06-10T15:14:54.563Z,6.71
2023-06-10T15:17:20.917Z,6.16
2023-06-10T15:19:47.316Z,6.40
2023-06-10T15:22:13.667Z,6.32
2023-06-10T15:24:40.011Z,6.45
2023-06-10T15:27:06.371Z,6.63
2023-06-10T15:29:32.719Z,6.64
2023-06-10T15:31:59.079Z,6.59
2023-06-10T15:34:25.505Z,6.37
2023-06-10T15:36:51.841Z,6.46
2023-06-10T15:39:18.175Z,6.41
2023-06-10T15:41:44.546Z,6.60
2023-06-10T15:44:10.891Z,6.36
2023-06-10T15:46:37.335Z,6.55
2023-06-10T15:49:03.865Z,6.07
2023-06-10T15:51:30.266Z,6.32
2023-06-10T15:53:56.605Z,6.38
2023-06-10T15:56:22.970Z,6.32
2023-06-10T15:58:49.364Z,6.43
2023-06-10T16:01:15.751Z,6.71
2023-06-10T16:03:42.276Z,6.49
2023-06-10T16:06:08.666Z,6.56
2023-06-10T16:08:35.004Z,7.02
2023-06-10T16:11:01.393Z,6.66
2023-06-10T16:13:27.740Z,6.61
2023-06-10T16:15:54.097Z,6.21
2023-06-10T16:18:20.551Z,6.82
2023-06-10T16:20:46.906Z,6.23
2023-06-10T16:23:13.251Z,6.52
2023-06-10T16:25:40.291Z,6.51
2023-06-10T16:28:06.871Z,6.35
2023-06-10T16:30:33.200Z,6.64
2023-06-10T16:32:59.624Z,6.50
2023-06-10T16:35:26.009Z,6.73
2023-06-10T16:37:52.365Z,6.19
2023-06-10T16:40:18.800Z,6.57
2023-06-10T16:42:45.141Z,5.84
2023-06-10T16:45:11.710Z,5.40
2023-06-10T16:47:38.455Z,5.25
2023-06-10T16:50:04.805Z,5.96
2023-06-10T16:52:31.143Z,6.57
2023-06-10T16:54:57.507Z,6.10
2023-06-10T16:57:23.874Z,5.89
2023-06-10T16:59:50.231Z,6.48
2023-06-10T17:02:16.590Z,6.05
2023-06-10T17:04:42.937Z,5.91
2023-06-10T17:07:09.285Z,6.14
2023-06-10T17:09:35.646Z,6.41
2023-06-10T17:12:01.998Z,6.47
2023-06-10T17:14:28.346Z,6.48
2023-06-10T17:16:54.737Z,7.21
2023-06-10T17:19:21.089Z,7.27
2023-06-10T17:21:47.443Z,6.44
2023-06-10T17:24:13.832Z,6.50
2023-06-10T17:26:40.220Z,6.29
2023-06-10T17:29:06.568Z,6.35
2023-06-10T17:31:32.971Z,6.70
2023-06-10T17:33:59.326Z,7.33
2023-06-10T17:36:25.690Z,7.30
2023-06-10T17:38:52.118Z,8.77
2023-06-10T17:41:18.499Z,8.28
2023-06-10T17:43:45.452Z,6.56
2023-06-10T17:46:12.089Z,6.65
2023-06-10T17:48:38.478Z,6.65
2023-06-10T17:51:04.833Z,6.93
2023-06-10T17:53:31.218Z,6.90
2023-06-10T17:55:59.570Z,7.48
2023-06-10T17:58:28.134Z,7.44
2023-06-10T18:00:54.495Z,6.83
2023-06-10T18:03:20.924Z,6.92
2023-06-10T18:05:47.342Z,7.00
2023-06-10T18:08:13.722Z,9.03
2023-06-10T18:10:40.079Z,16.74
2023-06-10T18:13:06.432Z,22.78
2023-06-10T18:15:35.166Z,19.65
2023-06-10T18:18:03.229Z,21.17
2023-06-10T18:20:29.619Z,20.06
2023-06-10T18:22:55.990Z,16.83
2023-06-10T18:25:22.371Z,13.51
2023-06-10T18:27:48.724Z,10.11
2023-06-10T18:30:15.091Z,8.56
2023-06-10T18:32:41.481Z,7.49
2023-06-10T18:35:08.021Z,7.36
2023-06-10T18:37:34.522Z,7.13
2023-06-10T18:40:00.879Z,7.68
2023-06-10T18:42:27.234Z,7.25
2023-06-10T18:44:53.597Z,7.28
2023-06-10T18:47:19.964Z,7.43
2023-06-10T18:49:46.335Z,7.60
2023-06-10T18:52:12.782Z,7.45
2023-06-10T18:54:39.160Z,7.59
2023-06-10T18:57:05.558Z,6.83
2023-06-10T18:59:31.956Z,6.45
2023-06-10T19:01:58.363Z,7.40
2023-06-10T19:04:24.733Z,7.21
2023-06-10T19:06:51.105Z,7.05
2023-06-10T19:09:17.457Z,7.03
2023-06-10T19:11:43.795Z,7.67
2023-06-10T19:14:10.165Z,7.00
2023-06-10T19:16:36.518Z,6.91
2023-06-10T19:19:02.856Z,7.61
2023-06-10T19:21:29.218Z,6.99
2023-06-10T19:23:55.642Z,7.20
2023-06-10T19:26:22.004Z,7.34
2023-06-10T19:28:48.459Z,7.54
2023-06-10T19:31:14.824Z,7.58
2023-06-10T19:33:41.624Z,7.33
2023-06-10T19:36:07.979Z,7.24
2023-06-10T19:38:34.338Z,6.99
2023-06-10T19:41:00.673Z,7.42
2023-06-10T19:43:27.023Z,7.64
2023-06-10T19:45:53.382Z,7.68
2023-06-10T19:48:19.788Z,7.70
2023-06-10T19:50:46.179Z,7.92
2023-06-10T19:53:12.588Z,7.77
2023-06-10T19:55:39.048Z,7.71
2023-06-10T19:58:05.447Z,8.23
2023-06-10T20:00:31.784Z,8.09
2023-06-10T20:02:58.275Z,7.95
2023-06-10T20:05:24.667Z,8.32
2023-06-10T20:07:51.053Z,8.25
2023-06-10T20:10:17.404Z,8.12
2023-06-10T20:12:43.779Z,8.18
2023-06-10T20:15:10.316Z,8.46
2023-06-10T20:17:36.946Z,8.39
2023-06-10T20:20:03.372Z,8.41
2023-06-10T20:22:29.728Z,8.75
2023-06-10T20:24:56.126Z,8.63
2023-06-10T20:27:22.625Z,8.77
2023-06-10T20:29:49.029Z,8.79
2023-06-10T20:32:15.442Z,8.76
2023-06-10T20:34:41.876Z,8.94
2023-06-10T20:37:08.218Z,9.09
2023-06-10T20:39:34.582Z,8.72
2023-06-10T20:42:00.985Z,8.25
2023-06-10T20:44:27.342Z,8.47
2023-06-10T20:46:53.680Z,8.60
2023-06-10T20:49:20.041Z,8.54
2023-06-10T20:51:46.388Z,8.60
2023-06-10T20:54:12.767Z,9.19
2023-06-10T20:56:39.176Z,9.09
2023-06-10T20:59:05.530Z,9.29
2023-06-10T21:01:31.940Z,9.66
2023-06-10T21:03:58.408Z,9.29
2023-06-10T21:06:24.783Z,9.17
2023-06-10T21:08:54.266Z,9.23
2023-06-10T21:11:20.633Z,8.80
2023-06-10T21:13:46.971Z,9.43
2023-06-10T21:16:13.395Z,8.94
2023-06-10T21:18:39.819Z,9.23
2023-06-10T21:21:06.177Z,9.81
2023-06-10T21:23:32.581Z,9.83
2023-06-10T21:25:58.976Z,9.50
2023-06-10T21:28:25.315Z,9.24
2023-06-10T21:30:51.655Z,9.39
2023-06-10T21:33:18.053Z,9.71
2023-06-10T21:35:44.395Z,9.25
2023-06-10T21:38:10.749Z,9.48
2023-06-10T21:40:37.127Z,11.13
2023-06-10T21:43:03.479Z,10.66
2023-06-10T21:45:29.821Z,9.93
2023-06-10T21:47:56.244Z,10.11
2023-06-10T21:50:22.623Z,9.07
2023-06-10T21:52:48.974Z,10.12
2023-06-10T21:55:15.546Z,9.99
2023-06-10T21:57:42.034Z,10.31
2023-06-10T22:00:08.435Z,9.58
2023-06-10T22:02:34.857Z,8.98
2023-06-10T22:05:01.222Z,8.73
2023-06-10T22:07:27.556Z,8.83
2023-06-10T22:09:53.954Z,8.95
2023-06-10T22:12:20.309Z,9.18
2023-06-10T22:14:46.707Z,8.96
2023-06-10T22:17:13.234Z,8.67
2023-06-10T22:19:39.841Z,8.68
2023-06-10T22:22:06.243Z,8.59
2023-06-10T22:24:32.607Z,8.76
2023-06-10T22:26:58.977Z,9.01
2023-06-10T22:29:25.342Z,8.95
2023-06-10T22:31:51.705Z,9.01
2023-06-10T22:34:18.055Z,8.69
2023-06-10T22:36:44.411Z,8.82
2023-06-10T22:39:10.782Z,8.71
2023-06-10T22:41:37.113Z,8.47
2023-06-10T22:44:03.462Z,9.52
2023-06-10T22:46:29.839Z,8.96
2023-06-10T22:48:56.270Z,8.94
2023-06-10T22:51:22.642Z,8.73
2023-06-10T22:53:49.019Z,9.25
2023-06-10T22:56:15.382Z,8.87
2023-06-10T22:58:41.781Z,8.82
2023-06-10T23:01:08.170Z,8.99
2023-06-10T23:03:34.540Z,8.90
2023-06-10T23:06:00.920Z,9.04
2023-06-10T23:08:27.283Z,8.82
2023-06-10T23:10:53.621Z,9.12
2023-06-10T23:13:19.985Z,9.33
2023-06-10T23:15:46.427Z,9.17
2023-06-10T23:18:12.829Z,9.12
2023-06-10T23:20:39.202Z,8.81
2023-06-10T23:23:05.556Z,9.02
2023-06-10T23:25:31.902Z,8.87
2023-06-10T23:27:58.256Z,9.08
2023-06-10T23:30:24.659Z,9.45
2023-06-10T23:32:51.120Z,8.99
2023-06-10T23:35:18.930Z,9.01
2023-06-10T23:37:45.362Z,9.00
2023-06-10T23:40:11.702Z,9.03
2023-06-10T23:42:38.063Z,9.36
2023-06-10T23:45:04.419Z,9.56
2023-06-10T23:47:31.965Z,9.45
2023-06-10T23:49:58.316Z,9.40
2023-06-10T23:52:24.694Z,9.07
2023-06-10T23:54:51.025Z,9.41
2023-06-10T23:57:17.380Z,9.48
2023-06-10T23:59:43.739Z,9.03
